sensor_id;sensor_type;location;lat;lon;timestamp;P1;durP1;ratioP1;P2;durP2;ratioP2
81619;SDS011;71028;53.410;6.710;2023-11-21T00:01:06;12.43;;;3.45;;
81619;SDS011;71028;53.410;6.710;2023-11-21T00:03:33;9.18;;;2.97;;
81619;SDS011;71028;53.410;6.710;2023-11-21T00:05:59;10.82;;;3.35;;
81619;SDS011;71028;53.410;6.710;2023-11-21T00:08:25;10.57;;;2.83;;
81619;SDS011;71028;53.410;6.710;2023-11-21T00:10:52;11.20;;;3.40;;
81619;SDS011;71028;53.410;6.710;2023-11-21T00:13:18;10.30;;;3.13;;
81619;SDS011;71028;53.410;6.710;2023-11-21T00:15:44;12.15;;;2.92;;
81619;SDS011;71028;53.410;6.710;2023-11-21T00:18:10;11.80;;;3.00;;
81619;SDS011;71028;53.410;6.710;2023-11-21T00:20:36;12.35;;;3.55;;
81619;SDS011;71028;53.410;6.710;2023-11-21T00:23:02;9.98;;;3.10;;
81619;SDS011;71028;53.410;6.710;2023-11-21T00:25:28;10.20;;;3.75;;
81619;SDS011;71028;53.410;6.710;2023-11-21T00:27:55;9.18;;;2.92;;
81619;SDS011;71028;53.410;6.710;2023-11-21T00:30:21;9.02;;;3.25;;
81619;SDS011;71028;53.410;6.710;2023-11-21T00:32:47;11.82;;;4.70;;
81619;SDS011;71028;53.410;6.710;2023-11-21T00:35:13;7.10;;;3.03;;
81619;SDS011;71028;53.410;6.710;2023-11-21T00:37:39;15.07;;;3.30;;
81619;SDS011;71028;53.410;6.710;2023-11-21T00:40:05;8.73;;;3.65;;
81619;SDS011;71028;53.410;6.710;2023-11-21T00:42:32;7.93;;;2.97;;
81619;SDS011;71028;53.410;6.710;2023-11-21T00:44:59;10.95;;;4.18;;
81619;SDS011;71028;53.410;6.710;2023-11-21T00:47:25;13.93;;;3.47;;
81619;SDS011;71028;53.410;6.710;2023-11-21T00:49:51;14.73;;;4.15;;
81619;SDS011;71028;53.410;6.710;2023-11-21T00:52:17;7.43;;;2.88;;
81619;SDS011;71028;53.410;6.710;2023-11-21T00:54:44;14.32;;;3.50;;
81619;SDS011;71028;53.410;6.710;2023-11-21T00:57:10;15.73;;;3.58;;
81619;SDS011;71028;53.410;6.710;2023-11-21T00:59:37;13.32;;;4.85;;
81619;SDS011;71028;53.410;6.710;2023-11-21T01:02:03;15.57;;;3.65;;
81619;SDS011;71028;53.410;6.710;2023-11-21T01:04:30;15.10;;;3.92;;
81619;SDS011;71028;53.410;6.710;2023-11-21T01:06:57;14.95;;;4.13;;
81619;SDS011;71028;53.410;6.710;2023-11-21T01:09:23;13.18;;;3.90;;
81619;SDS011;71028;53.410;6.710;2023-11-21T01:11:50;13.07;;;4.00;;
81619;SDS011;71028;53.410;6.710;2023-11-21T01:14:17;12.52;;;3.42;;
81619;SDS011;71028;53.410;6.710;2023-11-21T01:16:43;12.98;;;3.53;;
81619;SDS011;71028;53.410;6.710;2023-11-21T01:19:10;8.68;;;3.10;;
81619;SDS011;71028;53.410;6.710;2023-11-21T01:21:42;11.40;;;3.03;;
81619;SDS011;71028;53.410;6.710;2023-11-21T01:24:08;11.75;;;3.25;;
81619;SDS011;71028;53.410;6.710;2023-11-21T01:26:34;10.60;;;3.55;;
81619;SDS011;71028;53.410;6.710;2023-11-21T01:29:00;10.68;;;4.20;;
81619;SDS011;71028;53.410;6.710;2023-11-21T01:31:26;14.82;;;3.92;;
81619;SDS011;71028;53.410;6.710;2023-11-21T01:33:54;10.50;;;3.42;;
81619;SDS011;71028;53.410;6.710;2023-11-21T01:36:20;11.23;;;3.60;;
81619;SDS011;71028;53.410;6.710;2023-11-21T01:38:46;13.98;;;3.22;;
81619;SDS011;71028;53.410;6.710;2023-11-21T01:41:15;8.65;;;3.13;;
81619;SDS011;71028;53.410;6.710;2023-11-21T01:43:42;13.95;;;3.90;;
81619;SDS011;71028;53.410;6.710;2023-11-21T01:46:08;12.65;;;3.55;;
81619;SDS011;71028;53.410;6.710;2023-11-21T01:48:35;10.25;;;3.33;;
81619;SDS011;71028;53.410;6.710;2023-11-21T01:51:01;10.30;;;3.45;;
81619;SDS011;71028;53.410;6.710;2023-11-21T01:53:27;12.07;;;3.13;;
81619;SDS011;71028;53.410;6.710;2023-11-21T01:55:54;11.65;;;3.20;;
81619;SDS011;71028;53.410;6.710;2023-11-21T01:58:21;8.98;;;3.10;;
81619;SDS011;71028;53.410;6.710;2023-11-21T02:00:48;12.75;;;3.60;;
81619;SDS011;71028;53.410;6.710;2023-11-21T02:03:16;6.25;;;3.13;;
81619;SDS011;71028;53.410;6.710;2023-11-21T02:05:42;10.32;;;4.03;;
81619;SDS011;71028;53.410;6.710;2023-11-21T02:08:08;15.20;;;3.70;;
81619;SDS011;71028;53.410;6.710;2023-11-21T02:10:34;15.90;;;3.38;;
81619;SDS011;71028;53.410;6.710;2023-11-21T02:13:02;9.52;;;3.50;;
81619;SDS011;71028;53.410;6.710;2023-11-21T02:15:28;13.80;;;3.85;;
81619;SDS011;71028;53.410;6.710;2023-11-21T02:17:55;14.52;;;4.18;;
81619;SDS011;71028;53.410;6.710;2023-11-21T02:20:23;10.85;;;3.50;;
81619;SDS011;71028;53.410;6.710;2023-11-21T02:22:54;7.72;;;3.53;;
81619;SDS011;71028;53.410;6.710;2023-11-21T02:25:27;8.57;;;3.70;;
81619;SDS011;71028;53.410;6.710;2023-11-21T02:27:54;10.40;;;3.60;;
81619;SDS011;71028;53.410;6.710;2023-11-21T02:30:21;13.25;;;3.92;;
81619;SDS011;71028;53.410;6.710;2023-11-21T02:32:47;11.63;;;3.40;;
81619;SDS011;71028;53.410;6.710;2023-11-21T02:35:14;11.50;;;3.72;;
81619;SDS011;71028;53.410;6.710;2023-11-21T02:37:41;11.10;;;3.70;;
81619;SDS011;71028;53.410;6.710;2023-11-21T02:40:10;14.95;;;4.60;;
81619;SDS011;71028;53.410;6.710;2023-11-21T02:42:37;11.73;;;3.65;;
81619;SDS011;71028;53.410;6.710;2023-11-21T02:45:04;14.35;;;3.58;;
81619;SDS011;71028;53.410;6.710;2023-11-21T02:47:30;10.23;;;4.05;;
81619;SDS011;71028;53.410;6.710;2023-11-21T02:49:56;15.18;;;3.85;;
81619;SDS011;71028;53.410;6.710;2023-11-21T02:52:22;11.77;;;4.50;;
81619;SDS011;71028;53.410;6.710;2023-11-21T02:54:48;8.60;;;3.90;;
81619;SDS011;71028;53.410;6.710;2023-11-21T02:57:14;10.43;;;4.18;;
81619;SDS011;71028;53.410;6.710;2023-11-21T02:59:40;8.38;;;3.40;;
81619;SDS011;71028;53.410;6.710;2023-11-21T03:02:06;13.27;;;3.67;;
81619;SDS011;71028;53.410;6.710;2023-11-21T03:04:33;10.82;;;3.55;;
81619;SDS011;71028;53.410;6.710;2023-11-21T03:07:00;10.43;;;4.28;;
81619;SDS011;71028;53.410;6.710;2023-11-21T03:09:26;15.50;;;4.05;;
81619;SDS011;71028;53.410;6.710;2023-11-21T03:11:52;10.30;;;3.80;;
81619;SDS011;71028;53.410;6.710;2023-11-21T03:14:18;12.80;;;4.13;;
81619;SDS011;71028;53.410;6.710;2023-11-21T03:16:45;10.52;;;3.75;;
81619;SDS011;71028;53.410;6.710;2023-11-21T03:19:11;12.52;;;4.20;;
81619;SDS011;71028;53.410;6.710;2023-11-21T03:21:37;10.52;;;4.40;;
81619;SDS011;71028;53.410;6.710;2023-11-21T03:24:03;13.68;;;4.43;;
81619;SDS011;71028;53.410;6.710;2023-11-21T03:26:29;14.07;;;4.10;;
81619;SDS011;71028;53.410;6.710;2023-11-21T03:28:56;11.88;;;3.85;;
81619;SDS011;71028;53.410;6.710;2023-11-21T03:31:22;17.23;;;4.63;;
81619;SDS011;71028;53.410;6.710;2023-11-21T03:33:47;14.02;;;4.32;;
81619;SDS011;71028;53.410;6.710;2023-11-21T03:36:13;11.30;;;4.50;;
81619;SDS011;71028;53.410;6.710;2023-11-21T03:38:40;11.55;;;4.80;;
81619;SDS011;71028;53.410;6.710;2023-11-21T03:41:06;11.27;;;4.10;;
81619;SDS011;71028;53.410;6.710;2023-11-21T03:43:35;19.38;;;5.85;;
81619;SDS011;71028;53.410;6.710;2023-11-21T03:46:01;15.27;;;4.97;;
81619;SDS011;71028;53.410;6.710;2023-11-21T03:48:27;16.45;;;5.13;;
81619;SDS011;71028;53.410;6.710;2023-11-21T03:50:53;13.57;;;5.18;;
81619;SDS011;71028;53.410;6.710;2023-11-21T03:53:19;15.48;;;5.07;;
81619;SDS011;71028;53.410;6.710;2023-11-21T03:55:45;21.48;;;5.95;;
81619;SDS011;71028;53.410;6.710;2023-11-21T03:58:11;18.58;;;5.72;;
81619;SDS011;71028;53.410;6.710;2023-11-21T04:00:37;22.80;;;6.22;;
81619;SDS011;71028;53.410;6.710;2023-11-21T04:03:03;21.52;;;6.45;;
81619;SDS011;71028;53.410;6.710;2023-11-21T04:05:30;17.73;;;6.28;;
81619;SDS011;71028;53.410;6.710;2023-11-21T04:07:56;19.35;;;6.30;;
81619;SDS011;71028;53.410;6.710;2023-11-21T04:10:22;19.17;;;6.72;;
81619;SDS011;71028;53.410;6.710;2023-11-21T04:12:48;16.95;;;6.45;;
81619;SDS011;71028;53.410;6.710;2023-11-21T04:15:14;24.45;;;6.70;;
81619;SDS011;71028;53.410;6.710;2023-11-21T04:17:40;19.73;;;6.72;;
81619;SDS011;71028;53.410;6.710;2023-11-21T04:20:07;17.25;;;6.20;;
81619;SDS011;71028;53.410;6.710;2023-11-21T04:22:41;18.55;;;7.93;;
81619;SDS011;71028;53.410;6.710;2023-11-21T04:25:13;19.45;;;6.93;;
81619;SDS011;71028;53.410;6.710;2023-11-21T04:27:39;19.33;;;7.60;;
81619;SDS011;71028;53.410;6.710;2023-11-21T04:30:06;15.75;;;6.32;;
81619;SDS011;71028;53.410;6.710;2023-11-21T04:32:32;16.40;;;6.30;;
81619;SDS011;71028;53.410;6.710;2023-11-21T04:34:58;17.95;;;5.50;;
81619;SDS011;71028;53.410;6.710;2023-11-21T04:37:24;9.05;;;4.15;;
81619;SDS011;71028;53.410;6.710;2023-11-21T04:39:50;10.25;;;4.22;;
81619;SDS011;71028;53.410;6.710;2023-11-21T04:42:16;11.60;;;4.53;;
81619;SDS011;71028;53.410;6.710;2023-11-21T04:44:42;10.93;;;5.05;;
81619;SDS011;71028;53.410;6.710;2023-11-21T04:47:09;12.27;;;4.63;;
81619;SDS011;71028;53.410;6.710;2023-11-21T04:49:35;12.18;;;5.13;;
81619;SDS011;71028;53.410;6.710;2023-11-21T04:52:01;12.82;;;5.20;;
81619;SDS011;71028;53.410;6.710;2023-11-21T04:54:28;11.77;;;5.32;;
81619;SDS011;71028;53.410;6.710;2023-11-21T04:56:55;14.07;;;5.75;;
81619;SDS011;71028;53.410;6.710;2023-11-21T04:59:21;13.82;;;5.10;;
81619;SDS011;71028;53.410;6.710;2023-11-21T05:01:52;16.92;;;5.97;;
81619;SDS011;71028;53.410;6.710;2023-11-21T05:04:18;13.15;;;6.28;;
81619;SDS011;71028;53.410;6.710;2023-11-21T05:06:44;19.27;;;6.75;;
81619;SDS011;71028;53.410;6.710;2023-11-21T05:09:11;13.77;;;6.90;;
81619;SDS011;71028;53.410;6.710;2023-11-21T05:11:37;20.48;;;7.43;;
81619;SDS011;71028;53.410;6.710;2023-11-21T05:14:04;17.55;;;7.15;;
81619;SDS011;71028;53.410;6.710;2023-11-21T05:16:30;18.92;;;7.43;;
81619;SDS011;71028;53.410;6.710;2023-11-21T05:18:56;22.50;;;7.53;;
81619;SDS011;71028;53.410;6.710;2023-11-21T05:21:25;18.92;;;7.75;;
81619;SDS011;71028;53.410;6.710;2023-11-21T05:23:51;21.25;;;8.68;;
81619;SDS011;71028;53.410;6.710;2023-11-21T05:26:17;19.05;;;7.57;;
81619;SDS011;71028;53.410;6.710;2023-11-21T05:28:43;20.15;;;7.60;;
81619;SDS011;71028;53.410;6.710;2023-11-21T05:31:09;19.80;;;8.05;;
81619;SDS011;71028;53.410;6.710;2023-11-21T05:33:36;21.98;;;8.38;;
81619;SDS011;71028;53.410;6.710;2023-11-21T05:36:02;22.60;;;10.15;;
81619;SDS011;71028;53.410;6.710;2023-11-21T05:38:28;17.55;;;7.57;;
81619;SDS011;71028;53.410;6.710;2023-11-21T05:40:54;22.92;;;9.13;;
81619;SDS011;71028;53.410;6.710;2023-11-21T05:43:20;16.35;;;7.15;;
81619;SDS011;71028;53.410;6.710;2023-11-21T05:45:46;19.15;;;8.65;;
81619;SDS011;71028;53.410;6.710;2023-11-21T05:48:12;17.83;;;8.68;;
81619;SDS011;71028;53.410;6.710;2023-11-21T05:50:38;18.88;;;8.20;;
81619;SDS011;71028;53.410;6.710;2023-11-21T05:53:04;17.85;;;8.32;;
81619;SDS011;71028;53.410;6.710;2023-11-21T05:55:30;18.27;;;8.50;;
81619;SDS011;71028;53.410;6.710;2023-11-21T05:57:56;44.17;;;20.48;;
81619;SDS011;71028;53.410;6.710;2023-11-21T06:00:22;22.20;;;10.40;;
81619;SDS011;71028;53.410;6.710;2023-11-21T06:02:50;15.40;;;7.10;;
81619;SDS011;71028;53.410;6.710;2023-11-21T06:05:18;26.10;;;14.63;;
81619;SDS011;71028;53.410;6.710;2023-11-21T06:07:45;16.50;;;7.28;;
81619;SDS011;71028;53.410;6.710;2023-11-21T06:10:11;16.08;;;7.18;;
81619;SDS011;71028;53.410;6.710;2023-11-21T06:12:42;16.25;;;7.97;;
81619;SDS011;71028;53.410;6.710;2023-11-21T06:15:09;16.95;;;7.85;;
81619;SDS011;71028;53.410;6.710;2023-11-21T06:17:38;17.10;;;7.32;;
81619;SDS011;71028;53.410;6.710;2023-11-21T06:20:08;14.93;;;7.35;;
81619;SDS011;71028;53.410;6.710;2023-11-21T06:22:36;18.35;;;8.25;;
81619;SDS011;71028;53.410;6.710;2023-11-21T06:25:02;18.55;;;9.02;;
81619;SDS011;71028;53.410;6.710;2023-11-21T06:27:34;22.40;;;9.38;;
81619;SDS011;71028;53.410;6.710;2023-11-21T06:30:01;27.92;;;11.32;;
81619;SDS011;71028;53.410;6.710;2023-11-21T06:32:27;34.47;;;10.88;;
81619;SDS011;71028;53.410;6.710;2023-11-21T06:34:55;19.77;;;10.00;;
81619;SDS011;71028;53.410;6.710;2023-11-21T06:37:21;16.75;;;7.75;;
81619;SDS011;71028;53.410;6.710;2023-11-21T06:39:48;18.02;;;8.10;;
81619;SDS011;71028;53.410;6.710;2023-11-21T06:42:17;26.95;;;12.95;;
81619;SDS011;71028;53.410;6.710;2023-11-21T06:44:44;24.98;;;13.60;;
81619;SDS011;71028;53.410;6.710;2023-11-21T06:47:10;18.27;;;9.57;;
81619;SDS011;71028;53.410;6.710;2023-11-21T06:49:36;18.67;;;9.93;;
81619;SDS011;71028;53.410;6.710;2023-11-21T06:52:03;21.60;;;8.85;;
81619;SDS011;71028;53.410;6.710;2023-11-21T06:54:30;21.63;;;8.63;;
81619;SDS011;71028;53.410;6.710;2023-11-21T06:56:56;21.70;;;10.57;;
81619;SDS011;71028;53.410;6.710;2023-11-21T06:59:23;18.70;;;8.38;;
81619;SDS011;71028;53.410;6.710;2023-11-21T07:01:49;21.38;;;10.38;;
81619;SDS011;71028;53.410;6.710;2023-11-21T07:04:15;19.45;;;8.63;;
81619;SDS011;71028;53.410;6.710;2023-11-21T07:06:41;17.30;;;7.53;;
81619;SDS011;71028;53.410;6.710;2023-11-21T07:09:08;17.05;;;8.20;;
81619;SDS011;71028;53.410;6.710;2023-11-21T07:11:36;16.23;;;7.28;;
81619;SDS011;71028;53.410;6.710;2023-11-21T07:14:03;21.60;;;8.32;;
81619;SDS011;71028;53.410;6.710;2023-11-21T07:16:35;15.25;;;8.02;;
81619;SDS011;71028;53.410;6.710;2023-11-21T07:19:04;16.65;;;8.68;;
81619;SDS011;71028;53.410;6.710;2023-11-21T07:21:36;12.25;;;7.13;;
81619;SDS011;71028;53.410;6.710;2023-11-21T07:24:02;15.70;;;7.28;;
81619;SDS011;71028;53.410;6.710;2023-11-21T07:26:29;14.43;;;7.63;;
81619;SDS011;71028;53.410;6.710;2023-11-21T07:28:55;14.88;;;6.95;;
81619;SDS011;71028;53.410;6.710;2023-11-21T07:31:21;13.95;;;6.95;;
81619;SDS011;71028;53.410;6.710;2023-11-21T07:33:47;12.38;;;6.65;;
81619;SDS011;71028;53.410;6.710;2023-11-21T07:36:14;12.90;;;5.82;;
81619;SDS011;71028;53.410;6.710;2023-11-21T07:38:40;15.20;;;7.13;;
81619;SDS011;71028;53.410;6.710;2023-11-21T07:41:06;16.70;;;8.15;;
81619;SDS011;71028;53.410;6.710;2023-11-21T07:43:34;14.02;;;7.00;;
81619;SDS011;71028;53.410;6.710;2023-11-21T07:46:03;14.05;;;6.93;;
81619;SDS011;71028;53.410;6.710;2023-11-21T07:48:33;13.40;;;8.88;;
81619;SDS011;71028;53.410;6.710;2023-11-21T07:50:59;19.95;;;11.77;;
81619;SDS011;71028;53.410;6.710;2023-11-21T07:53:25;10.88;;;7.43;;
81619;SDS011;71028;53.410;6.710;2023-11-21T07:55:55;15.93;;;8.20;;
81619;SDS011;71028;53.410;6.710;2023-11-21T07:58:21;17.42;;;11.30;;
81619;SDS011;71028;53.410;6.710;2023-11-21T08:00:48;15.73;;;8.30;;
81619;SDS011;71028;53.410;6.710;2023-11-21T08:03:15;14.32;;;8.77;;
81619;SDS011;71028;53.410;6.710;2023-11-21T08:05:41;29.42;;;18.65;;
81619;SDS011;71028;53.410;6.710;2023-11-21T08:08:07;17.55;;;11.77;;
81619;SDS011;71028;53.410;6.710;2023-11-21T08:10:33;13.75;;;7.65;;
81619;SDS011;71028;53.410;6.710;2023-11-21T08:13:00;14.90;;;8.85;;
81619;SDS011;71028;53.410;6.710;2023-11-21T08:15:26;13.77;;;7.88;;
81619;SDS011;71028;53.410;6.710;2023-11-21T08:17:52;32.10;;;18.92;;
81619;SDS011;71028;53.410;6.710;2023-11-21T08:20:18;21.58;;;11.40;;
81619;SDS011;71028;53.410;6.710;2023-11-21T08:22:45;17.80;;;10.57;;
81619;SDS011;71028;53.410;6.710;2023-11-21T08:25:12;20.75;;;13.30;;
81619;SDS011;71028;53.410;6.710;2023-11-21T08:27:38;17.40;;;11.30;;
81619;SDS011;71028;53.410;6.710;2023-11-21T08:30:05;17.15;;;10.68;;
81619;SDS011;71028;53.410;6.710;2023-11-21T08:32:32;12.82;;;7.10;;
81619;SDS011;71028;53.410;6.710;2023-11-21T08:34:58;12.93;;;7.75;;
81619;SDS011;71028;53.410;6.710;2023-11-21T08:37:24;11.60;;;7.38;;
81619;SDS011;71028;53.410;6.710;2023-11-21T08:39:52;14.52;;;8.45;;
81619;SDS011;71028;53.410;6.710;2023-11-21T08:42:18;12.88;;;7.07;;
81619;SDS011;71028;53.410;6.710;2023-11-21T08:44:44;10.75;;;5.88;;
81619;SDS011;71028;53.410;6.710;2023-11-21T08:47:11;10.48;;;5.93;;
81619;SDS011;71028;53.410;6.710;2023-11-21T08:49:37;11.88;;;6.70;;
81619;SDS011;71028;53.410;6.710;2023-11-21T08:52:03;11.02;;;6.28;;
81619;SDS011;71028;53.410;6.710;2023-11-21T08:54:30;13.10;;;6.72;;
81619;SDS011;71028;53.410;6.710;2023-11-21T08:56:56;9.52;;;6.15;;
81619;SDS011;71028;53.410;6.710;2023-11-21T08:59:25;10.80;;;5.75;;
81619;SDS011;71028;53.410;6.710;2023-11-21T09:01:51;12.95;;;7.65;;
81619;SDS011;71028;53.410;6.710;2023-11-21T09:04:18;12.30;;;6.50;;
81619;SDS011;71028;53.410;6.710;2023-11-21T09:06:43;17.30;;;7.40;;
81619;SDS011;71028;53.410;6.710;2023-11-21T09:09:10;20.80;;;8.43;;
81619;SDS011;71028;53.410;6.710;2023-11-21T09:11:36;28.67;;;11.45;;
81619;SDS011;71028;53.410;6.710;2023-11-21T09:14:02;34.72;;;11.68;;
81619;SDS011;71028;53.410;6.710;2023-11-21T09:16:29;19.52;;;7.72;;
81619;SDS011;71028;53.410;6.710;2023-11-21T09:18:55;19.33;;;7.93;;
81619;SDS011;71028;53.410;6.710;2023-11-21T09:21:21;21.83;;;7.82;;
81619;SDS011;71028;53.410;6.710;2023-11-21T09:23:48;16.17;;;7.82;;
81619;SDS011;71028;53.410;6.710;2023-11-21T09:26:14;14.65;;;6.20;;
81619;SDS011;71028;53.410;6.710;2023-11-21T09:28:41;11.30;;;5.72;;
81619;SDS011;71028;53.410;6.710;2023-11-21T09:31:11;17.02;;;8.25;;
81619;SDS011;71028;53.410;6.710;2023-11-21T09:33:37;11.30;;;5.43;;
81619;SDS011;71028;53.410;6.710;2023-11-21T09:36:04;15.23;;;8.63;;
81619;SDS011;71028;53.410;6.710;2023-11-21T09:38:30;13.93;;;6.20;;
81619;SDS011;71028;53.410;6.710;2023-11-21T09:40:56;10.43;;;4.50;;
81619;SDS011;71028;53.410;6.710;2023-11-21T09:43:23;9.85;;;5.65;;
81619;SDS011;71028;53.410;6.710;2023-11-21T09:45:56;11.98;;;5.85;;
81619;SDS011;71028;53.410;6.710;2023-11-21T09:48:25;9.52;;;4.95;;
81619;SDS011;71028;53.410;6.710;2023-11-21T09:50:51;13.90;;;5.95;;
81619;SDS011;71028;53.410;6.710;2023-11-21T09:58:16;7.78;;;4.88;;
81619;SDS011;71028;53.410;6.710;2023-11-21T10:00:46;14.68;;;7.22;;
81619;SDS011;71028;53.410;6.710;2023-11-21T10:03:12;21.33;;;8.43;;
81619;SDS011;71028;53.410;6.710;2023-11-21T10:05:39;12.98;;;6.93;;
81619;SDS011;71028;53.410;6.710;2023-11-21T10:08:07;8.23;;;4.65;;
81619;SDS011;71028;53.410;6.710;2023-11-21T10:10:33;11.75;;;5.10;;
81619;SDS011;71028;53.410;6.710;2023-11-21T10:13:01;6.55;;;3.47;;
81619;SDS011;71028;53.410;6.710;2023-11-21T10:15:28;7.63;;;3.90;;
81619;SDS011;71028;53.410;6.710;2023-11-21T10:17:55;9.13;;;4.15;;
81619;SDS011;71028;53.410;6.710;2023-11-21T10:20:21;6.20;;;4.15;;
81619;SDS011;71028;53.410;6.710;2023-11-21T10:22:49;9.77;;;4.80;;
81619;SDS011;71028;53.410;6.710;2023-11-21T10:25:15;6.80;;;4.72;;
81619;SDS011;71028;53.410;6.710;2023-11-21T10:27:43;8.38;;;4.43;;
81619;SDS011;71028;53.410;6.710;2023-11-21T10:30:12;6.68;;;4.05;;
81619;SDS011;71028;53.410;6.710;2023-11-21T10:32:38;4.70;;;3.13;;
81619;SDS011;71028;53.410;6.710;2023-11-21T10:35:05;5.30;;;3.03;;
81619;SDS011;71028;53.410;6.710;2023-11-21T10:37:32;6.20;;;3.47;;
81619;SDS011;71028;53.410;6.710;2023-11-21T10:39:58;6.60;;;3.35;;
81619;SDS011;71028;53.410;6.710;2023-11-21T10:42:24;7.30;;;3.63;;
81619;SDS011;71028;53.410;6.710;2023-11-21T10:44:52;6.13;;;3.33;;
81619;SDS011;71028;53.410;6.710;2023-11-21T10:47:18;5.47;;;3.38;;
81619;SDS011;71028;53.410;6.710;2023-11-21T10:49:45;8.10;;;4.18;;
81619;SDS011;71028;53.410;6.710;2023-11-21T10:52:13;11.15;;;5.63;;
81619;SDS011;71028;53.410;6.710;2023-11-21T10:54:43;5.43;;;3.92;;
81619;SDS011;71028;53.410;6.710;2023-11-21T10:57:09;7.72;;;3.92;;
81619;SDS011;71028;53.410;6.710;2023-11-21T10:59:36;12.65;;;5.53;;
81619;SDS011;71028;53.410;6.710;2023-11-21T11:02:07;25.25;;;11.05;;
81619;SDS011;71028;53.410;6.710;2023-11-21T11:07:07;5.88;;;3.50;;
81619;SDS011;71028;53.410;6.710;2023-11-21T11:09:34;18.10;;;8.05;;
81619;SDS011;71028;53.410;6.710;2023-11-21T11:12:03;7.20;;;4.55;;
81619;SDS011;71028;53.410;6.710;2023-11-21T11:14:31;8.25;;;4.05;;
81619;SDS011;71028;53.410;6.710;2023-11-21T11:16:57;8.20;;;3.88;;
81619;SDS011;71028;53.410;6.710;2023-11-21T11:19:25;7.15;;;3.63;;
81619;SDS011;71028;53.410;6.710;2023-11-21T11:32:35;50.60;;;20.00;;
81619;SDS011;71028;53.410;6.710;2023-11-21T11:35:34;49.20;;;19.48;;
81619;SDS011;71028;53.410;6.710;2023-11-21T11:37:52;14.27;;;5.50;;
81619;SDS011;71028;53.410;6.710;2023-11-21T11:40:19;7.50;;;4.20;;
81619;SDS011;71028;53.410;6.710;2023-11-21T11:42:58;6.72;;;4.07;;
81619;SDS011;71028;53.410;6.710;2023-11-21T11:45:25;9.93;;;5.30;;
81619;SDS011;71028;53.410;6.710;2023-11-21T11:47:56;7.50;;;4.43;;
81619;SDS011;71028;53.410;6.710;2023-11-21T11:50:22;19.30;;;9.73;;
81619;SDS011;71028;53.410;6.710;2023-11-21T11:52:50;9.48;;;5.20;;
81619;SDS011;71028;53.410;6.710;2023-11-21T11:55:18;14.43;;;8.27;;
81619;SDS011;71028;53.410;6.710;2023-11-21T11:57:49;19.65;;;10.15;;
81619;SDS011;71028;53.410;6.710;2023-11-21T12:03:02;42.75;;;17.73;;
81619;SDS011;71028;53.410;6.710;2023-11-21T12:05:28;19.60;;;9.85;;
81619;SDS011;71028;53.410;6.710;2023-11-21T12:07:58;10.07;;;5.72;;
81619;SDS011;71028;53.410;6.710;2023-11-21T12:10:35;18.90;;;9.88;;
81619;SDS011;71028;53.410;6.710;2023-11-21T12:13:11;30.02;;;13.93;;
81619;SDS011;71028;53.410;6.710;2023-11-21T12:15:38;19.48;;;10.40;;
81619;SDS011;71028;53.410;6.710;2023-11-21T12:18:06;37.03;;;19.63;;
81619;SDS011;71028;53.410;6.710;2023-11-21T12:20:32;12.93;;;6.53;;
81619;SDS011;71028;53.410;6.710;2023-11-21T12:23:03;13.88;;;6.82;;
81619;SDS011;71028;53.410;6.710;2023-11-21T12:25:30;24.83;;;13.20;;
81619;SDS011;71028;53.410;6.710;2023-11-21T12:27:57;18.33;;;9.88;;
81619;SDS011;71028;53.410;6.710;2023-11-21T12:30:25;11.68;;;5.47;;
81619;SDS011;71028;53.410;6.710;2023-11-21T12:32:54;26.38;;;13.48;;
81619;SDS011;71028;53.410;6.710;2023-11-21T12:35:21;25.08;;;12.27;;
81619;SDS011;71028;53.410;6.710;2023-11-21T12:37:48;6.47;;;3.95;;
81619;SDS011;71028;53.410;6.710;2023-11-21T12:40:14;9.38;;;5.40;;
81619;SDS011;71028;53.410;6.710;2023-11-21T12:42:42;15.50;;;7.25;;
81619;SDS011;71028;53.410;6.710;2023-11-21T12:45:09;10.07;;;5.82;;
81619;SDS011;71028;53.410;6.710;2023-11-21T12:47:41;9.05;;;5.70;;
81619;SDS011;71028;53.410;6.710;2023-11-21T12:50:07;8.15;;;3.85;;
81619;SDS011;71028;53.410;6.710;2023-11-21T12:52:39;8.30;;;4.40;;
81619;SDS011;71028;53.410;6.710;2023-11-21T12:55:05;9.98;;;4.88;;
81619;SDS011;71028;53.410;6.710;2023-11-21T12:57:33;5.13;;;3.28;;
81619;SDS011;71028;53.410;6.710;2023-11-21T12:59:59;9.52;;;3.85;;
81619;SDS011;71028;53.410;6.710;2023-11-21T13:02:36;6.15;;;3.83;;
81619;SDS011;71028;53.410;6.710;2023-11-21T13:05:03;8.40;;;3.65;;
81619;SDS011;71028;53.410;6.710;2023-11-21T13:07:40;10.77;;;3.65;;
81619;SDS011;71028;53.410;6.710;2023-11-21T13:10:11;3.95;;;2.60;;
81619;SDS011;71028;53.410;6.710;2023-11-21T13:12:42;4.93;;;2.13;;
81619;SDS011;71028;53.410;6.710;2023-11-21T13:15:08;22.83;;;8.68;;
81619;SDS011;71028;53.410;6.710;2023-11-21T13:17:35;3.22;;;1.92;;
81619;SDS011;71028;53.410;6.710;2023-11-21T13:20:01;5.65;;;2.55;;
81619;SDS011;71028;53.410;6.710;2023-11-21T13:22:31;4.35;;;2.20;;
81619;SDS011;71028;53.410;6.710;2023-11-21T13:24:58;5.35;;;2.40;;
81619;SDS011;71028;53.410;6.710;2023-11-21T13:27:24;5.50;;;3.08;;
81619;SDS011;71028;53.410;6.710;2023-11-21T13:29:51;3.17;;;1.90;;
81619;SDS011;71028;53.410;6.710;2023-11-21T13:32:16;3.50;;;1.92;;
81619;SDS011;71028;53.410;6.710;2023-11-21T13:34:45;4.40;;;2.45;;
81619;SDS011;71028;53.410;6.710;2023-11-21T13:37:12;4.78;;;2.40;;
81619;SDS011;71028;53.410;6.710;2023-11-21T13:39:38;4.88;;;2.90;;
81619;SDS011;71028;53.410;6.710;2023-11-21T13:42:09;6.82;;;3.90;;
81619;SDS011;71028;53.410;6.710;2023-11-21T13:44:36;4.03;;;2.40;;
81619;SDS011;71028;53.410;6.710;2023-11-21T13:47:06;7.28;;;2.58;;
81619;SDS011;71028;53.410;6.710;2023-11-21T13:49:32;4.65;;;2.10;;
81619;SDS011;71028;53.410;6.710;2023-11-21T13:52:03;3.35;;;1.88;;
81619;SDS011;71028;53.410;6.710;2023-11-21T13:54:31;4.85;;;2.38;;
81619;SDS011;71028;53.410;6.710;2023-11-21T13:56:57;3.92;;;2.38;;
81619;SDS011;71028;53.410;6.710;2023-11-21T13:59:25;5.57;;;2.30;;
81619;SDS011;71028;53.410;6.710;2023-11-21T14:01:53;4.97;;;2.15;;
81619;SDS011;71028;53.410;6.710;2023-11-21T14:04:24;4.78;;;2.33;;
81619;SDS011;71028;53.410;6.710;2023-11-21T14:07:08;5.95;;;2.15;;
81619;SDS011;71028;53.410;6.710;2023-11-21T14:10:06;4.05;;;1.80;;
81619;SDS011;71028;53.410;6.710;2023-11-21T14:12:39;3.42;;;2.08;;
81619;SDS011;71028;53.410;6.710;2023-11-21T14:15:07;3.55;;;2.20;;
81619;SDS011;71028;53.410;6.710;2023-11-21T14:17:34;3.95;;;2.08;;
81619;SDS011;71028;53.410;6.710;2023-11-21T14:20:02;6.85;;;2.28;;
81619;SDS011;71028;53.410;6.710;2023-11-21T14:22:30;4.80;;;2.85;;
81619;SDS011;71028;53.410;6.710;2023-11-21T14:24:56;4.40;;;2.13;;
81619;SDS011;71028;53.410;6.710;2023-11-21T14:27:25;7.35;;;4.10;;
81619;SDS011;71028;53.410;6.710;2023-11-21T14:29:51;3.88;;;2.28;;
81619;SDS011;71028;53.410;6.710;2023-11-21T14:32:17;4.15;;;2.33;;
81619;SDS011;71028;53.410;6.710;2023-11-21T14:34:43;3.28;;;2.13;;
81619;SDS011;71028;53.410;6.710;2023-11-21T14:37:12;4.75;;;2.80;;
81619;SDS011;71028;53.410;6.710;2023-11-21T14:39:39;3.80;;;2.10;;
81619;SDS011;71028;53.410;6.710;2023-11-21T14:42:09;3.28;;;1.80;;
81619;SDS011;71028;53.410;6.710;2023-11-21T14:44:35;4.75;;;2.17;;
81619;SDS011;71028;53.410;6.710;2023-11-21T14:47:06;3.95;;;1.90;;
81619;SDS011;71028;53.410;6.710;2023-11-21T14:49:40;3.42;;;1.90;;
81619;SDS011;71028;53.410;6.710;2023-11-21T14:52:17;3.85;;;2.33;;
81619;SDS011;71028;53.410;6.710;2023-11-21T14:54:58;7.28;;;3.67;;
81619;SDS011;71028;53.410;6.710;2023-11-21T14:57:44;3.45;;;2.25;;
81619;SDS011;71028;53.410;6.710;2023-11-21T15:00:15;4.80;;;2.13;;